x

8452944 - Conimicut Light, Ri (cptr1) Weather Station

4:30 - Fri 6th Mar 2015 All times are EST. -5 hours from GMT.

  • Wind
    11mph, 14mph gusts
  • Sea Temp 32°f
  • Aire Temp 24°f
  • Sea Pressure 1029.9mb
  • 8452944 - Conimicut Light, Ri
  • 8452944 - Conimicut Light, Ri

More Historic Weather Station data

Upgrade to MSW Pro to gain access to the past 30 days of data for over 8000 Wavebouys and Weather Stations around the globe.

Join Pro

Comparision Forecast

View Surf forecast
   
vie 03/06 4:30 11 14 mph 1029.9mb 32f 24f
4:24 10 14 mph 1029.9mb 32f 23f
4:18 10 13 mph 1030mb 32f 24f
4:12 10 13 mph 1030mb 32f 23f
4:06 9 11 mph 1030.1mb 31f 23f
4:00 8 9 mph 1030.1mb 31f 23f
3:54 6 8 mph 1030.1mb 31f 24f
3:48 7 8 mph 1030.2mb 31f 23f
3:42 7 9 mph 1030.3mb 31f 23f
3:36 7 9 mph 1030.3mb 31f 23f
3:30 7 9 mph 1030.4mb 31f 22f
3:24 6 8 mph 1030.4mb 31f 23f
3:18 7 8 mph 1030.6mb 31f 23f
3:12 8 9 mph 1030.6mb 31f 22f
3:06 7 8 mph 1030.7mb 31f 22f
3:00 7 8 mph 1030.8mb 31f 22f
2:54 6 7 mph 1030.9mb 31f 22f
2:48 6
mph
1030.9mb 31f 22f
2:42 6 7 mph 1031mb 31f 22f
2:36 7 8 mph 1031mb 31f 22f
2:30 6 7 mph 1030.9mb 31f 22f
2:24 6 7 mph 1031mb 31f 22f
2:18 6 8 mph 1031.1mb 31f 22f
2:12 7 8 mph 1031.1mb 31f 22f
2:06 7 8 mph 1031.2mb 31f 21f
2:00 7 8 mph 1031.3mb 31f 21f
1:54 7 8 mph 1031.4mb 31f 20f
1:48 6 8 mph 1031.4mb 31f 20f
1:42 7 8 mph 1031.5mb 31f 21f
1:36 6 8 mph 1031.6mb 31f 20f
1:30 7 8 mph 1031.6mb 31f 20f
1:24 3 7 mph 1031.7mb 31f 20f
1:18 6 8 mph 1031.8mb 31f 20f
1:12 5 6 mph 1031.8mb 31f 20f
1:06 2 3 mph 1031.9mb 31f 21f
1:00  -  1 mph 1031.9mb 31f 22f
12:54 1 2 mph 1031.9mb 31f 23f
12:48  -  1 mph 1032mb 31f 21f
12:42  -  1 mph 1032.1mb 31f 22f
12:36  -  2 mph 1032.2mb 31f 23f
12:30 2
mph
1032.3mb 31f 22f
12:24 2 3 mph 1032.4mb 31f 20f
12:18 2 5 mph 1032.5mb 31f 20f
12:12 2 5 mph 1032.6mb 31f 19f
12:06 3 5 mph 1032.7mb 31f 19f
12:00 3 6 mph 1032.8mb 31f 19f
11:54 6 7 mph 1032.7mb 31f 19f
11:48 5 7 mph 1032.8mb 30f 19f
11:42 7 8 mph 1032.9mb 30f 19f
11:36 6 9 mph 1032.9mb 30f 19f
11:30 7 9 mph 1033mb 30f 18f
11:24 9 11 mph 1033mb 30f 18f
11:18 8 11 mph 1033mb 30f 18f
11:12 9 11 mph 1032.9mb 30f 18f
11:06 9 13 mph 1032.8mb 30f 20f
11:00 9 13 mph 1032.8mb 30f 20f
10:54 9 11 mph 1032.8mb 30f 18f
10:48 10 14 mph 1032.8mb 30f 19f
10:42 11 14 mph 1032.7mb 30f 20f
10:36 9 15 mph 1032.9mb 30f 20f
10:30 10 15 mph 1032.9mb 30f 18f
10:24 10 14 mph 1032.8mb 30f 19f
10:18 10 13 mph 1032.9mb 30f 19f
10:12 10 15 mph 1032.8mb 30f 20f
10:06 10 14 mph 1032.8mb 30f 19f
10:00 10 14 mph 1032.8mb 30f 19f
9:54 13 15 mph 1032.9mb 30f 17f
9:48 13 15 mph 1032.9mb 30f 18f
9:42 13 15 mph 1033mb 30f 19f
9:36 15 16 mph 1032.9mb 30f 18f
9:30 14 15 mph 1032.9mb 30f 18f
9:24 13 17 mph 1033mb 30f 18f
9:18 14 16 mph 1033mb 30f 17f
9:12 13 17 mph 1033.1mb 30f 17f
9:06 16 20 mph 1033mb 30f 17f
9:00 15 20 mph 1032.9mb 30f 17f
8:54 15 20 mph 1032.9mb 30f 17f
8:48 14 17 mph 1033mb 30f 17f
8:42 16 21 mph 1033mb 30f 16f
8:36 16 22 mph 1033mb 30f 16f
8:30 20 22 mph 1032.8mb 30f 15f
8:24 20 22 mph 1032.8mb 30f 15f
8:18 18 21 mph 1032.8mb 30f 16f
8:12 17 22 mph 1032.8mb 30f 15f
8:06 18 23 mph 1032.7mb 30f 15f
8:00 18 22 mph 1032.7mb 30f 15f
7:54 18 21 mph 1032.7mb 30f 15f
7:48 16 20 mph 1032.6mb 30f 15f
7:42 15 21 mph 1032.6mb 30f 14f
7:36 18 21 mph 1032.5mb 30f 14f
7:30 17 21 mph 1032.4mb 30f 14f
7:24 20 23 mph 1032.1mb 30f 14f
7:18 18 22 mph 1031.9mb 30f 13f
7:12 18 22 mph 1031.9mb 30f 13f
7:06 18 22 mph 1031.9mb 30f 13f
7:00 18 22 mph 1031.6mb 30f 13f
6:54 17 20 mph 1031.7mb 30f 14f
6:48 18 21 mph 1031.6mb 30f 13f
6:42 17 21 mph 1031.6mb 30f 13f
6:36 18 21 mph 1031.6mb 30f 13f
6:30 21 22 mph 1031.4mb 30f 13f
6:24 20 22 mph 1031.2mb 31f 13f
6:18 18 21 mph 1031.3mb 31f 13f
6:12 17 22 mph 1031.2mb 31f 13f
6:06 17 21 mph 1031.4mb 31f 13f
6:00 18 22 mph 1031.3mb 31f 14f
5:54 17 21 mph 1031.2mb 31f 14f
5:48 18 21 mph 1031mb 31f 14f
5:42 18 22 mph 1031mb 31f 14f
5:36 18 23 mph 1030.9mb 31f 14f
5:30 18 21 mph 1030.7mb 31f 14f
5:24 16 18 mph 1030.6mb 31f 14f
5:18 14 16 mph 1030.6mb 31f 14f
5:12 15 20 mph 1030.4mb 31f 14f
5:06 17 20 mph 1030.4mb 31f 15f
5:00 18 23 mph 1030.3mb 31f 15f
4:54 17 22 mph 1030.1mb 31f 15f
4:48  -  mph 1030mb 31f -
4:42  -  mph 1029.9mb 31f -
4:36  -  mph 1029.8mb 31f -
4:30 16 18 mph 1029.8mb 31f 16f
4:24 16 21 mph 1029.7mb 31f 16f
4:18 15 18 mph 1029.6mb 31f 16f
4:12 15 17 mph 1029.7mb 31f 16f
4:06 15 20 mph 1029.6mb 31f 16f
4:00 17 21 mph 1029.2mb 31f 16f
3:54 16 21 mph 1029.1mb 31f 16f
3:48  -  mph 1029.1mb 31f 16f
3:42  -  mph 1028.9mb 31f 17f
3:36  -  mph 1028.9mb 31f 17f
3:30 18 21 mph 1028.7mb 31f 17f
3:24 18 22 mph 1028.6mb 31f 17f
3:18 17 20 mph 1028.4mb 31f 17f
3:12 14 20 mph 1028.4mb 31f 17f
3:06 15 18 mph 1028.3mb 31f 18f
3:00 13 21 mph 1028.3mb 31f 18f
2:54 21 26 mph 1028.1mb 31f 19f
2:48 24 29 mph 1027.9mb 31f 19f
2:42 25 31 mph 1027.8mb 31f 19f
2:36 26 30 mph 1027.7mb 31f 19f
2:30 18 24 mph 1027.7mb 31f 19f
2:24 21 24 mph 1027.6mb 31f 19f
2:18 24 28 mph 1027.6mb 31f 19f
2:12 24 29 mph 1027.6mb 31f 20f
2:06 24 28 mph 1027.5mb 31f 20f
2:00  -  mph 1027.5mb - -
1:54  -  mph 1027.3mb - -
1:48 28 31 mph 1027.3mb 31f -
1:42 24 28 mph 1027.3mb 31f -
1:36 24 29 mph 1027.3mb 31f -
1:30 23 28 mph 1027.3mb 31f 21f
1:24 22 28 mph 1027.1mb 31f 21f
1:18 24 32 mph 1027.1mb 31f 21f
1:12 29 31 mph 1026.6mb 31f 21f
1:06 28 33 mph 1026.5mb 31f 21f
1:00 28 34 mph 1026.4mb 31f 21f
12:54 24 33 mph 1026.5mb 31f 21f
12:48 23 29 mph 1026.5mb 31f 22f
12:42 24 30 mph 1026.3mb 31f 22f
12:36 25 30 mph 1026.1mb 31f 22f
12:30 23 29 mph 1025.9mb 31f 22f
12:24 23 28 mph 1026mb 31f 22f
12:18 23 28 mph 1026mb 31f 22f
12:12 24 30 mph 1025.7mb 31f 22f
12:06 25 29 mph 1025.6mb 31f 22f
12:00 25 30 mph 1025.6mb 31f 22f
jue 03/05 11:54 26 29 mph 1025.5mb 31f 22f
11:48 25 29 mph 1025.3mb 31f 22f
11:42 24 26 mph 1025.3mb 31f 22f
11:36 22 28 mph 1025.2mb 31f 22f
11:30 22 29 mph 1025.2mb 31f 23f
11:24 25 31 mph 1025mb 31f 23f
11:18 23 30 mph 1025.3mb 31f 23f
11:12 24 29 mph 1025mb 31f 23f
11:06 24 26 mph 1024.7mb 31f 23f
11:00 25 30 mph 1024.8mb 31f 23f
10:54 25 29 mph 1024.8mb 31f 23f
10:48 25 29 mph 1024.6mb 31f 23f
10:42 28 29 mph 1024.5mb 31f 23f
10:36 28 29 mph 1024.7mb 31f 24f
10:30 23 26 mph 1024.7mb 31f 24f
10:24 18 23 mph 1024.7mb 31f 24f
10:18 18 21 mph 1025mb 31f 24f
10:12 17 22 mph 1024.7mb 31f 24f
10:06 20 22 mph 1024.8mb 31f 24f
10:00 20 22 mph 1024.6mb 31f 24f
9:54 20 23 mph 1024.5mb 31f 24f
9:48 21 24 mph 1024.2mb 31f 24f
9:42 22 24 mph 1023.9mb 31f 24f
9:36 15 21 mph 1024.1mb 31f 25f
9:30 16 20 mph 1024mb 31f 25f
9:24 13 15 mph 1024.1mb 31f 24f
9:18 11 14 mph 1023.6mb 31f 24f
9:12 11 15 mph 1023.4mb 31f 24f
9:06 11 14 mph 1023.5mb 31f 24f
9:00 11 14 mph 1023.2mb 31f 24f
8:54 10 13 mph 1023.2mb 31f 24f
8:48 11 13 mph 1023.1mb 31f 25f
8:42 11 13 mph 1023.1mb 31f 25f
8:36 10 13 mph 1023.1mb 31f 25f
8:30 11 13 mph 1023.2mb 31f 25f
8:24 10 11 mph 1023.1mb 31f 25f
8:18 10 11 mph 1022.9mb 31f 25f
8:12 10 11 mph 1022.5mb 31f 24f
8:06 9 10 mph 1022.7mb 31f 24f
8:00 10 11 mph 1022.7mb 31f 24f
7:54 10 13 mph 1022.7mb 31f 24f
7:48 9 10 mph 1022.5mb 31f 24f
7:42 7 8 mph 1022.2mb 31f 24f
7:36 8
mph
1022.7mb 31f 24f
7:30 6 7 mph 1022.3mb 31f 24f
7:24 7 8 mph 1022.6mb 31f 24f
7:18 7
mph
1022.6mb 31f 24f
7:12 2 5 mph 1022mb 31f 24f
7:06 3 5 mph 1022.4mb 31f 24f
7:00 3 5 mph 1022.1mb 31f 24f
6:54 5 6 mph 1022.5mb 31f 24f
6:48 3 6 mph 1022.4mb 31f 24f
6:42 6 7 mph 1022.2mb 31f 24f
6:36 1 5 mph 1021.7mb 31f 23f
6:30 3 5 mph 1021.5mb 32f 23f
6:24 3 6 mph 1020.8mb 32f 24f
6:18 6 9 mph 1021.3mb 32f 23f
6:12 8 10 mph 1021.5mb 32f 23f
6:06 9 10 mph 1021.8mb 32f 24f
6:00 9 10 mph 1021.1mb 32f 23f
5:54 10 13 mph 1020.9mb 32f 23f
5:48 13 14 mph 1020.7mb 32f 23f
5:42 13 14 mph 1020.6mb 32f 23f
5:36 11 14 mph 1020.7mb 32f 23f
5:30 13 15 mph 1020.5mb 32f 23f
5:24 14 15 mph 1020.7mb 32f 23f
5:18 11 14 mph 1020.7mb 32f 24f
5:12 9 10 mph 1020.9mb 32f 24f
5:06 8 9 mph 1020.7mb 32f 24f
5:00 6 8 mph 1020.7mb 32f 24f
4:54 3 5 mph 1020.4mb 32f 24f
4:48 2
mph
1020.1mb 32f 25f
4:42 1 2 mph 1020mb 32f 25f
4:36 1 2 mph 1020mb 32f 25f
4:30  -  mph 1020.2mb 32f 25f
4:24  -  1 mph 1020.5mb 32f 25f
4:18  -  1 mph 1020.7mb 32f 25f
4:12 1 2 mph 1020.5mb 32f 25f
4:06 2
mph
1020.2mb 32f 25f
4:00  -  1 mph 1020mb 32f 25f
3:54 1 3 mph 1019.8mb 32f 26f
3:48 1 3 mph 1019.8mb 32f 26f
3:42 2 3 mph 1020mb 32f 26f
3:36 2 5 mph 1019.8mb 32f 25f
3:30 2 5 mph 1019.9mb 32f 25f
3:24 3 6 mph 1020mb 32f 25f
3:18 5 7 mph 1020.2mb 32f 25f
3:12 6 7 mph 1020.1mb 32f 25f
3:06 6 8 mph 1019.8mb 32f 25f
3:00 7 8 mph 1019.6mb 32f 25f
2:54 7 9 mph 1019.5mb 32f 25f
2:48 8 10 mph 1019.4mb 32f 25f
2:42 10 11 mph 1018.9mb 32f 25f
2:36 5 8 mph 1018.8mb 32f 25f
2:30 7 9 mph 1018.4mb 32f 25f
2:24 3 5 mph 1018.8mb 32f 24f
2:18 2
mph
1019.6mb 32f 24f
2:12 2 3 mph 1019.6mb 32f 24f
2:06 2 3 mph 1019.6mb 32f 24f
2:00 2 5 mph 1019.2mb 32f 25f
1:54 6 7 mph 1019.1mb 32f 25f
1:48 5 8 mph 1019.1mb 32f 24f
1:42 7 9 mph 1019.2mb 32f 25f
1:36 7 9 mph 1019.3mb 32f 26f
1:30 8 10 mph 1019.3mb 32f 26f
1:24 9 10 mph 1019.4mb 32f 26f
1:18 10 13 mph 1019.6mb 32f 26f
1:12 7 10 mph 1019.6mb 32f 26f
1:06 10 13 mph 1019.4mb 32f 26f
1:00 11 14 mph 1019.2mb 32f 26f
12:54 13 15 mph 1019.2mb 32f 26f
12:48 14 15 mph 1018.7mb 32f 26f
12:42 11 14 mph 1018.8mb 32f 26f
12:36 11 14 mph 1018.7mb 32f 26f
12:30 14 15 mph 1018.5mb 32f 26f
12:24 14 15 mph 1018.3mb 32f 26f
12:18 15 18 mph 1018.2mb 32f 26f
12:12 16 21 mph 1017.8mb 32f 26f
12:06 16 20 mph 1017.7mb 32f 26f
12:00 15 18 mph 1017.7mb 32f 26f
11:54 11 14 mph 1017.8mb 32f 27f
11:48 9 11 mph 1017.9mb 32f 27f
11:42 11 13 mph 1018mb 32f 27f
11:36 11 14 mph 1018mb 32f 27f
11:30 14 15 mph 1018.2mb 32f 27f
11:24 15 17 mph 1018.2mb 32f 27f
11:18 14 16 mph 1018.2mb 32f 27f
11:12 15 16 mph 1018.2mb 32f 27f
11:06 14 16 mph 1018.4mb 32f 27f
11:00 14 15 mph 1018.7mb 32f 28f
10:54 15 20 mph 1018.4mb 32f 27f
10:48 15 18 mph 1018.4mb 32f 28f
10:42 15 17 mph 1018.6mb 32f 28f
10:36 14 16 mph 1018.5mb 32f 28f
10:30 10 15 mph 1018.4mb 32f 28f
10:24 11 13 mph 1018.2mb 32f 28f
10:18 9 13 mph 1018.5mb 32f 28f
10:12 10 14 mph 1018.3mb 32f 28f
10:06 11 15 mph 1018mb 32f 28f
10:00 9 11 mph 1018mb 32f 28f
9:54 9 11 mph 1018.4mb 32f 29f
9:48 11 15 mph 1018.6mb 32f 29f
9:42 13 17 mph 1018.4mb 32f 29f
9:36 16 21 mph 1018.2mb 32f 29f
9:30 22 25 mph 1017.8mb 32f 29f
9:24 15 16 mph 1017.6mb 32f 30f
9:18 14 16 mph 1017.4mb 32f 30f
9:12 15 16 mph 1017.5mb 32f 30f
9:06 15 20 mph 1017.6mb 32f 30f
9:00 18 21 mph 1017.4mb 32f 30f
8:54 14 18 mph 1017.3mb 32f 30f
8:48 9 10 mph 1017.3mb 32f 30f
8:42 9 10 mph 1017.1mb 32f 30f
8:36 10
mph
1017.1mb 32f 30f
8:30 8 9 mph 1017mb 32f 30f
8:24 8 9 mph 1016.9mb 32f 30f
8:18 8 11 mph 1016.9mb 32f 30f
8:12 9 10 mph 1016.9mb 32f 30f
8:06 10
mph
1016.7mb 32f 31f
8:00 9 11 mph 1016.5mb 32f 31f
7:54 9 11 mph 1016.2mb 32f 31f
7:48 10 13 mph 1016.4mb 32f 31f
7:42 10 14 mph 1016.3mb 32f 31f
7:36 10 11 mph 1016.3mb 32f 31f
7:30 9 11 mph 1016.1mb 32f 31f
7:24 9 10 mph 1016mb 32f 31f
7:18 9 11 mph 1015.8mb 32f 31f
7:12 10 11 mph 1015.6mb 32f 31f
7:06 9 11 mph 1015.6mb 32f 31f
7:00 10 13 mph 1015.6mb 32f 31f
6:54 11 14 mph 1015.3mb 32f 31f
6:48 14 15 mph 1015.2mb 32f 31f
6:42 14 16 mph 1015.1mb 32f 31f
6:36 15 16 mph 1014.7mb 32f 31f
6:30 14 16 mph 1014.8mb 32f 31f
6:24 13 15 mph 1015mb 32f 31f
6:18 11 16 mph 1015.1mb 32f 31f
6:12 13 16 mph 1015.1mb 32f 31f
6:06 15 20 mph 1015mb 33f 31f
6:00 17 22 mph 1015.1mb 33f 32f
5:54 15 21 mph 1014.8mb 33f 32f
5:48 15 21 mph 1015mb 33f 32f
5:42 15 20 mph 1015mb 33f 32f
5:36 11 15 mph 1014.9mb 33f 33f
5:30 15 17 mph 1014.6mb 33f 33f
5:24 9 14 mph 1014.7mb 33f 33f
5:18 6
mph
1014.5mb 33f 33f
5:12 6
mph
1014.3mb 33f 33f
5:06 5 6 mph 1014mb 33f 33f
5:00 5 6 mph 1013.7mb - 32f
4:54 5 7 mph 1013.2mb - 32f
4:48  -  mph 1013mb - -
4:42  -  mph 1012.9mb - -
4:36  -  mph 1012.7mb - -
4:30 7
mph
1012.8mb 33f 33f
4:24 6 7 mph 1012.7mb 33f 33f
4:18 6 8 mph 1012.5mb 33f 33f
4:12 8 10 mph 1012.8mb 33f 33f
4:06 9 11 mph 1012.8mb 33f 33f
4:00 10 13 mph 1012.8mb 33f 33f
3:54 11 13 mph 1012.8mb 33f 34f
3:48 11 14 mph - 33f 34f
3:42 11 13 mph - 33f 34f
3:36 11 14 mph - 33f 34f
3:30 13 14 mph 1011.9mb 33f 34f
3:24 14 15 mph 1011.8mb 33f 34f
3:18 14 16 mph 1011.7mb 33f 35f
3:12 16 17 mph 1011.6mb 33f 35f
3:06 14 16 mph 1011.3mb 33f 35f
3:00 11 15 mph 1011.2mb 33f 35f
2:54 13 16 mph 1011.2mb 33f 36f
2:48 11 13 mph 1011.2mb 33f 36f
2:42 10 11 mph 1011.1mb 33f 36f
2:36 10 13 mph 1011.1mb 33f 36f
2:30 11 15 mph 1011.2mb 33f 37f
2:24 10 11 mph 1011.2mb 33f 37f
2:18 8 14 mph 1011.2mb - -
2:12 6 7 mph 1011.2mb - 35f
2:06 1 3 mph 1011.2mb - 36f
2:00 2 5 mph - 33f 36f
1:54 5 6 mph - 33f 37f
1:48 6 7 mph 1011.2mb 33f 37f
1:42 6 7 mph 1011.2mb 33f 37f
1:36 6 7 mph 1011.2mb 33f 37f
1:30 6 7 mph 1011.2mb 33f 37f
1:24 6 7 mph 1011.1mb 33f 36f
1:18 6 7 mph 1011.1mb 33f 36f
1:12 6
mph
1011mb 33f 36f
1:06 6 7 mph 1011mb 33f 35f
1:00 7
mph
1011.2mb 33f 35f
12:54 7
mph
1011.2mb 33f 35f
12:48 6 7 mph 1010.9mb 33f 36f
12:42 6 7 mph 1010.9mb 33f 36f
12:36 6 7 mph 1010.9mb 33f 37f
12:30 6 7 mph 1011mb 33f 37f
12:24 6 7 mph 1011mb 33f 37f
12:18 5 6 mph 1011.1mb 33f 37f
12:12 5 7 mph 1011.3mb 33f 37f
12:06 6 7 mph 1011.5mb 33f 36f
12:00 6 7 mph 1011.4mb 33f 37f
mié 03/04 11:54 7
mph
1011.5mb 33f 37f
11:48 6 7 mph 1011.6mb 33f 36f
11:42 6 7 mph 1011.4mb 33f 36f
11:36 6 8 mph 1011.5mb 33f 36f
11:30 8 9 mph 1011.5mb 33f 36f
11:24 9
mph
1011.4mb 33f 36f
11:18 9 10 mph 1011.4mb 33f 35f
11:12 10 11 mph 1011.4mb 33f 35f
11:06 10 11 mph 1011.4mb 33f 35f
11:00 11 13 mph 1011.3mb 33f 35f
10:54 14
mph
1011.4mb 33f 35f
10:48 14
mph
1011.4mb 33f 35f
10:42 14
mph
1011.5mb 33f 35f
10:36 14 15 mph 1011.4mb 33f 35f
10:30 15
mph
1011.4mb 33f 35f
10:24 14
mph
1011.3mb 33f 35f
10:18 14
mph
1011.4mb 33f 35f
10:12 14
mph
1011.3mb 33f 36f
10:06 14
mph
1011.4mb 33f 36f
10:00 14
mph
1011.5mb 33f 35f
9:54 13 14 mph 1011.4mb 33f 35f
9:48 13
mph
1011mb 33f 35f
9:42 9
mph
1011mb 32f 37f
9:36 7
mph
1011mb 32f 38f
9:30 6
mph
1011.1mb 32f 38f
9:24 6
mph
1011.3mb 33f 38f
9:18 6
mph
1011.4mb 33f 38f
9:12 5 6 mph 1011.1mb 33f 38f
9:06 6 7 mph 1011mb 32f 38f
9:00 7
mph
1010.7mb 32f 37f
8:54 7 9 mph 1010.6mb 32f 36f
8:48 9 10 mph 1010.6mb 32f 36f
8:42 10 11 mph 1010.6mb 32f 36f
8:36 11 13 mph 1010.3mb 32f 36f
8:30 11 13 mph 1010.2mb 32f 35f
8:24 11 14 mph 1010mb 32f 36f
8:18 11
mph
1010mb 32f 35f
8:12 10 11 mph 1010.1mb 32f 35f
8:06 11 13 mph 1010mb 32f 36f
8:00 11 13 mph 1010mb 32f 36f
7:54 13 14 mph 1010.1mb 32f 36f
7:48 13
mph
1010.2mb 32f 36f
7:42 11 13 mph 1010.4mb 32f 36f
7:36 11 13 mph 1010.6mb 32f 36f
7:30 11
mph
1010.6mb 32f 36f
7:24 11 13 mph 1010.9mb 32f 36f
7:18 13 14 mph 1010.9mb 32f 38f
7:12 13
mph
1011.1mb 32f 38f
7:06 10 11 mph 1011.4mb 32f 38f
7:00 9 11 mph 1011.2mb 32f 38f
6:54 9 10 mph 1011.3mb 32f 38f
6:48 10
mph
1011mb 32f 36f
6:42 8 9 mph 1010.8mb 32f 37f
6:36 8 9 mph 1010.9mb 32f 38f
6:30 7 8 mph 1010.9mb 33f 36f
6:24 8 9 mph 1010.9mb 33f 37f
6:18 9 10 mph 1010.8mb 33f 36f
6:12 10 13 mph 1010.6mb 33f 36f
6:06 13 14 mph 1010mb 33f 37f
6:00 14 16 mph 1010.1mb 33f 37f
5:54 14 15 mph 1009.6mb 33f 37f
5:48 7 8 mph 1009.9mb 33f 42f
5:42 6 7 mph 1010.3mb 33f 42f
5:36 6 8 mph 1010.3mb 33f 42f
5:30 7 8 mph 1010.5mb 33f 42f
5:24 7 9 mph 1010.3mb 33f 41f
5:18 9 11 mph 1010.2mb 33f 42f
5:12 10 13 mph 1010.1mb 33f 42f
5:06 9 11 mph 1010.3mb 33f 42f
5:00 11 14 mph 1010.3mb 33f 42f
4:54 11 13 mph 1010.3mb 33f 42f
4:48 10 11 mph 1010.1mb 33f 42f
4:42 9 11 mph 1010mb 33f 42f
4:36 9 13 mph 1009.9mb 33f 42f
4:30 11 13 mph 1009.7mb 33f 43f
4:24 8 11 mph 1009.9mb 33f 42f
4:18 9 10 mph 1010.1mb 33f 43f
4:12 9 11 mph 1010mb 33f 43f
4:06 9 11 mph 1009.8mb 33f 43f
4:00 8 9 mph 1009.6mb 33f 43f
3:54 8 9 mph 1009.2mb 33f 43f
3:48 8 11 mph 1009mb 33f 42f
3:42 10 11 mph 1008.9mb 32f 42f
3:36 10 13 mph 1008.5mb 32f 42f
3:30 10 13 mph 1008.4mb 32f 42f
3:24 13 15 mph 1008.1mb 32f 42f
3:18 15 16 mph 1008.4mb 32f 42f
3:12 11 14 mph 1008.7mb 32f 42f
3:06 10 13 mph 1008.6mb 32f 43f
3:00 9 11 mph 1008.6mb 32f 42f
2:54 11 14 mph 1008.9mb 32f 42f
2:48 9 10 mph 1009mb 32f 42f
2:42 9 13 mph 1008.6mb 32f 43f
2:36 10 13 mph 1008.7mb 32f 43f
2:30 10 13 mph 1008.9mb 32f 43f
2:24 8 10 mph 1008.7mb 32f 43f
2:18 10 14 mph 1008.6mb 32f 43f
2:12 9 11 mph 1008.6mb 32f 43f
2:06 10 11 mph 1008.9mb 32f 43f
2:00 10 14 mph 1009.1mb 32f 42f
1:54 6 8 mph 1008.6mb 32f 42f
1:48 7 9 mph 1008.5mb 32f 42f
1:42 7 10 mph 1008.8mb 32f 42f
1:36 8 10 mph 1008.9mb 32f 43f
1:30 10 13 mph 1009mb 32f 43f
1:24 10 14 mph 1009.5mb 32f 43f
1:18 8 9 mph 1008.9mb 32f 42f
1:00 10 14 mph 1008.8mb 32f 42f
12:54 10 13 mph 1009mb 32f 42f
12:48 11 14 mph 1008.9mb 32f 43f
12:42 10 14 mph 1008.9mb 32f 42f
12:36 10 13 mph 1009.2mb 32f 42f
12:30 8 11 mph 1009mb 32f 42f
12:24 9 11 mph 1009.4mb 32f 42f
12:18 9 10 mph 1009.2mb 32f -
12:12 8 10 mph 1009.5mb 32f -
12:06 7 9 mph 1009.5mb 31f -
12:00 8 11 mph 1009.6mb 31f 40f
11:54 10 13 mph 1009.8mb 31f 41f
11:48 9 10 mph 1009.7mb 31f 41f
11:42 7 8 mph 1009.7mb 31f 38f
11:36 6 8 mph 1009.4mb 31f 38f
11:30 7 9 mph 1009.5mb 31f 38f
11:24 8 9 mph 1009.5mb 31f 37f
11:18 8 11 mph 1009.5mb 31f 36f
11:12 8 10 mph 1009.1mb 31f 36f
11:06 8 9 mph 1009mb 31f 35f
11:00 8 9 mph 1009.1mb 31f 35f
10:54 8 9 mph 1009.3mb 31f 36f
10:48 7 8 mph 1009.2mb 31f 36f
10:42 8 9 mph 1008.9mb 31f 35f
10:36 9 10 mph 1009.1mb 31f 35f
10:30 9
mph
1009.2mb 31f 35f
10:24 9 10 mph 1009.5mb 31f 35f
10:18 8 9 mph 1009.3mb 31f 35f
10:12 8 9 mph 1008.9mb 31f 36f
10:06 7 8 mph 1009mb 31f 38f
10:00 7 9 mph 1008.9mb 31f 37f
9:54 7 9 mph 1009mb 31f 38f
9:48 8 10 mph 1008.8mb 31f 38f
9:42 9 11 mph 1008.6mb 31f 38f
9:36 8 9 mph 1008.5mb 31f 38f
9:30 8 9 mph 1008.8mb 31f 37f
9:18 8 10 mph 1008.6mb 31f 37f
9:12 8 9 mph 1008.6mb 31f 37f
9:06 8 13 mph 1008.4mb 31f 37f
9:00 10 11 mph 1008.9mb 31f 37f
8:54 9 10 mph 1008.6mb 31f 37f
8:48 9 11 mph 1008.5mb 31f 37f
8:42 9 11 mph 1008.2mb 31f 37f
8:36 8 9 mph 1008mb 31f 37f
8:30 9 10 mph 1007.8mb 31f 37f
8:24 9 10 mph 1008mb 31f 37f
8:18 8 9 mph 1007.8mb 31f 37f
8:12 9 10 mph 1008mb 31f 37f
8:06 9 13 mph 1007.9mb 31f 37f
8:00 8 11 mph 1007.6mb 31f 37f
7:54 9 11 mph 1007.6mb 31f 37f
7:48 10 11 mph 1007.5mb 31f 37f
7:42 9 11 mph 1007.3mb 31f 37f
7:36 8 10 mph 1007.1mb 31f 37f
7:30 8 9 mph 1006.9mb 31f 37f
7:24 9 14 mph 1007.1mb 31f 36f
7:18 11 17 mph 1007.3mb 31f 37f
7:12 14 16 mph 1007.2mb 31f 37f
7:06 14 17 mph 1006.9mb 31f 37f
7:00 16 17 mph 1006.9mb 31f 37f
6:54 15 17 mph 1006.8mb 31f 36f
6:48 14 17 mph 1006.9mb 31f 36f
6:42 14 15 mph 1006.9mb 31f 36f
6:36 11 14 mph 1006.7mb 31f 36f
6:30 11 14 mph 1006.8mb 31f 36f
6:24 11 15 mph 1006.9mb 31f 36f
6:18 11 13 mph 1006.8mb 31f 35f
6:12 10 14 mph 1006.6mb 31f 36f
6:06 10 13 mph 1006mb 31f 37f
6:00 10 11 mph 1006.2mb 31f 37f
5:54 9 14 mph 1006.7mb 31f 37f
5:48 11 14 mph 1006.6mb 31f 37f
5:42 9 13 mph 1006.3mb 31f 37f
5:36 11 15 mph 1006.3mb 31f 37f
5:30 10 13 mph 1006.2mb 31f 37f
5:24 7 10 mph 1006mb 31f 37f
5:18 7 8 mph 1005.9mb 31f 37f
5:12 6 10 mph 1005.7mb 31f 37f
5:06 9 13 mph 1005.8mb 31f 37f
5:00 8 10 mph 1005.6mb 31f 37f
4:54 8 10 mph 1005.6mb 31f 37f
4:48 9 11 mph 1005.4mb 31f 37f
4:42 9 13 mph 1005.3mb 31f 37f
4:36 10 15 mph 1005.4mb 31f 37f
4:30 11 14 mph 1005.5mb 31f 37f
4:24 11 14 mph 1005.6mb 31f 38f
4:18 10 15 mph 1005.7mb 31f 37f
4:12 10 17 mph 1005.7mb 31f 37f
4:06 16 22 mph 1005.9mb 31f 38f
4:00 14 20 mph 1005.7mb 31f 38f
3:54 16 22 mph 1005.8mb 31f 38f
3:48 17 21 mph 1006.1mb 31f 38f
3:42 18 24 mph 1006mb 31f 38f
3:36 17 22 mph 1005.8mb 31f 38f
3:30 18 25 mph 1005.4mb 31f 38f
3:24 17 21 mph 1005.4mb 31f 38f
3:18 17 23 mph 1005.4mb 31f 38f
3:12 17 29 mph 1005.7mb 31f 39f
3:06 23 26 mph 1006.1mb 31f 39f
3:00 18 23 mph 1006mb 31f 39f
2:54 17 25 mph 1005.9mb 31f 40f
2:48 17 22 mph 1005.9mb 31f 40f
2:42 17 24 mph 1006mb 31f 40f
2:36 21 24 mph 1005.6mb 31f 40f
2:30 24 28 mph 1005.6mb 31f 40f
2:24 23 28 mph 1005.8mb 31f 40f
2:18 22 25 mph 1005.9mb 31f 40f
2:12 23 29 mph 1005.8mb 31f 39f
2:06 28 31 mph 1005.7mb 31f 39f
2:00 28 31 mph 1005.7mb 31f 39f
1:54 26 31 mph 1006mb 31f 37f
1:48 21 26 mph 1006.6mb 31f 37f
1:42 25 28 mph 1006.3mb 31f 37f
1:36 28 29 mph 1006.2mb 31f 37f
1:30 23
mph
1007.1mb 31f 36f
1:24 22 23 mph 1007.3mb 31f 36f
1:18 20 21 mph 1007.7mb 31f 35f
1:12 17 21 mph 1007.9mb 31f 35f
1:06 20 23 mph 1007.7mb 31f 36f
1:00 21 23 mph 1007.7mb 31f 36f
12:54 21 23 mph 1007.6mb 31f 35f
12:48 21 22 mph 1007.7mb 31f 35f
12:42 21 22 mph 1008.2mb 31f 35f
12:36 18 22 mph 1008.5mb 31f 35f
12:30 20 22 mph 1008.6mb 31f 35f
12:24 21 22 mph 1008.7mb 31f 35f
12:18 21 22 mph 1008.8mb 31f 34f
12:12 21 24 mph 1009mb 31f 34f
12:06 23 24 mph 1009.2mb 31f 34f
12:00 22 23 mph 1009.6mb 31f 33f
mar 03/03 11:54 23 25 mph 1010.1mb 31f 34f
11:48 24 25 mph 1010.2mb 31f 34f
11:42 18 21 mph 1010.4mb 31f 34f
11:36 14 17 mph 1010.8mb 31f 33f
11:30 16 20 mph 1010.9mb 31f 33f
11:24 16 20 mph 1010.8mb 31f 33f
11:18 18 21 mph 1011mb 31f 33f
11:12 20 22 mph 1011.3mb 31f 32f
11:06 21 23 mph 1011.3mb 31f 32f
11:00 21 23 mph 1011.9mb 31f 32f
10:54 23 26 mph 1011.9mb 31f 32f
10:48 24 28 mph 1011.8mb 31f 32f
10:42 25 29 mph 1012mb 31f 32f
10:36 26 29 mph 1012mb 31f 32f
10:30 25 28 mph 1012.8mb 31f 32f
10:24 25 29 mph 1013.3mb 31f 32f
10:18 22 25 mph 1013.6mb 31f 32f
10:12 22 24 mph 1013.7mb 31f 31f
10:06 22 24 mph 1014mb 31f 31f
10:00 22 23 mph 1014.2mb 31f 31f
9:54 22 24 mph 1014.4mb 31f 31f
9:48 20 22 mph 1014.7mb 31f 31f
9:42 17 20 mph 1014.8mb 31f 31f
9:36 17 18 mph 1015mb 31f 31f
9:30 17 20 mph 1015mb 31f 31f
9:24 16 20 mph 1015.3mb 31f 31f
9:18 18 20 mph 1015.6mb 31f 31f
9:12 18 22 mph 1015.8mb 31f 30f
9:06 21 22 mph 1015.9mb 31f 30f
9:00 20 22 mph 1016.2mb 31f 30f
8:54 20 23 mph 1016.4mb 31f 30f
8:48 18 21 mph 1016.6mb 31f 30f
8:42 18 21 mph 1016.8mb 31f 30f
8:36 20 23 mph 1017mb 31f 30f
8:30 21 23 mph 1017.3mb 31f 30f
8:24 21 24 mph 1017.4mb 31f 30f
8:18 21 24 mph 1017.4mb 31f 30f
8:12 23 25 mph 1017.3mb 31f 30f
8:06 22 25 mph 1017.5mb 31f 29f
8:00 22 24 mph 1017.8mb 31f 29f
7:54 21 23 mph 1018.2mb 31f 29f
7:48 16 17 mph 1018.7mb 31f 28f
7:42 15 18 mph 1019mb 31f 28f
7:36 15 17 mph 1019.4mb 31f 28f
7:30 14 17 mph 1019.6mb 31f 27f
7:24 14 16 mph 1019.8mb 31f 27f
7:18 15 18 mph 1020mb 31f 27f
7:12 15 16 mph 1020.3mb 31f 26f
7:06 15 18 mph 1020.4mb 31f 26f
7:00 14 16 mph 1020.6mb 31f 26f
6:54 15 17 mph 1020.8mb 31f 26f
6:48 14 16 mph 1021.2mb 31f 26f
6:42 14 16 mph 1021.2mb 31f 26f
6:36 15 17 mph 1021.3mb 31f 26f
6:30 16 17 mph 1021.5mb 31f 26f
6:24 15 18 mph 1021.8mb 31f 26f
6:18 15 17 mph 1022mb 31f 26f
6:12 14 20 mph 1022.1mb 31f 26f
6:06 20 22 mph 1022.2mb 31f 26f
6:00 21 23 mph 1022.4mb 31f 27f
5:54 22 23 mph 1022.6mb 31f 27f
5:48 16 22 mph 1022.6mb 31f 28f
5:42 15 18 mph 1022.7mb 31f 28f
5:36 17 22 mph 1022.9mb 31f 28f
5:30 17 20 mph 1022.9mb 31f 28f
5:24 17 20 mph 1023.2mb 32f 28f
5:18 17 22 mph 1023.2mb 32f 28f
5:12 18 24 mph 1023.3mb 32f 28f
5:06 18 22 mph 1023.4mb 32f 28f
5:00 21 23 mph 1023.4mb 32f 27f
4:54 22 24 mph 1023.4mb 32f 27f
4:48 22 25 mph 1023.3mb 32f 28f
4:42 23 24 mph 1023.5mb 32f 28f
4:36 23 25 mph 1023.8mb 32f 27f
4:30 22 23 mph 1023.8mb 32f 28f
4:24 23 25 mph 1023.8mb 32f 27f
4:18 23 25 mph 1023.8mb 32f 28f
4:12 22 24 mph 1024.2mb 32f 28f
4:06 21 24 mph 1024.3mb 32f 28f
4:00 23 25 mph 1024.4mb 32f 28f
3:54 23 25 mph 1024.7mb 32f 27f
3:48 22 25 mph 1025mb 32f 28f
3:42 22 23 mph 1025mb 32f 28f
3:36 20 22 mph 1025.3mb 32f 27f
3:30 21 22 mph 1025.3mb 32f 27f
3:24 20 22 mph 1025.2mb 32f 27f
3:18 21 22 mph 1025.2mb 32f 28f
3:12 20 22 mph 1024.9mb 32f 28f
3:06 21 22 mph 1025.2mb 32f 28f
3:00 20 21 mph 1025.2mb 32f 28f
2:54 17 20 mph 1025.4mb 32f 28f
2:48 17
mph
1025.5mb 32f 28f
2:42 16 17 mph 1025.7mb 31f 28f
2:36 15 17 mph 1025.7mb 31f 28f
2:30 15 17 mph 1025.8mb 31f 29f
2:24 16 17 mph 1025.8mb 31f 28f
2:18 15 16 mph 1025.8mb 31f 28f
2:12 15 16 mph 1025.9mb 31f 28f
2:06 15 17 mph 1026mb 31f 28f
2:00 14 16 mph 1026.1mb 31f 28f
1:54 13 14 mph 1026.5mb 31f 28f
1:48 11 13 mph 1026.7mb 31f 28f
1:42 13 14 mph 1026.8mb 31f 28f
1:36 8 13 mph 1026.8mb 31f 28f
1:30 11 13 mph 1027mb 31f 27f
1:24 11 14 mph 1027.1mb 31f 27f
1:18 13 14 mph 1027.3mb 31f 27f
1:12 10 13 mph 1027.4mb 31f 28f
1:06 10 11 mph 1027.7mb 31f 28f
1:00 7 8 mph 1027.8mb 31f 28f
12:54 7 10 mph 1027.9mb 31f 27f
12:48 9
mph
1028.2mb 31f 27f
12:42 9
mph
1028.2mb 31f 27f
12:36 8 10 mph 1028.5mb 31f 27f
12:30 7 9 mph 1028.7mb 31f 27f
12:24 7 9 mph 1028.8mb 31f 27f
12:18 7
mph
1028.8mb 31f 27f
12:12 5 9 mph 1028.9mb 31f 27f
12:06 8 9 mph 1028.9mb 31f 27f
12:00 3 5 mph 1029.1mb 31f 29f
11:54  -  2 mph 1029.2mb 31f 30f
11:48  -  2 mph 1029.1mb 31f 30f
11:42  -  3 mph 1029.2mb 31f 31f
11:36  -  3 mph 1029.2mb 31f 30f
11:30  -  2 mph 1029.3mb 31f -
11:24 3 5 mph 1029.4mb 31f -
11:18 2 3 mph - - 32f
11:12 2 6 mph - - 30f
11:06 6 7 mph - - 27f
11:00  -  mph 1029.4mb 31f 27f
10:54  -  mph 1029.5mb 31f 27f
10:48 3 5 mph - 31f 29f
10:42 2 5 mph - 31f 29f
10:36 5 7 mph - 31f 29f
10:30 3 5 mph - 31f 28f
10:24 5 6 mph - 30f 27f
10:18  -  mph 1029.9mb 30f 29f
10:12  -  mph 1029.8mb 30f 28f
10:06  -  mph 1030mb 30f 26f
10:00 6 8 mph - - 26f
9:54 6 8 mph - - 25f
9:48 8 10 mph - - -
9:42 9 14 mph - - -
9:36 10 14 mph - - -
9:30  -  mph - - 25f
9:24  -  mph - - 24f
9:18 7 8 mph - 30f -
9:12 5 6 mph - 30f -
9:06 7 9 mph - 30f -
9:00  -  mph 1030.2mb - 24f
8:54  -  mph 1030.3mb - 23f
8:48 6 7 mph - - 23f
8:42 3 6 mph - - 23f
8:36 6 7 mph - - 22f
8:30  -  mph - 30f -
8:24  -  mph - 30f -
8:18 5 7 mph 1030.6mb - 22f
8:12 7 8 mph 1030.7mb - 21f
8:06 6 7 mph 1030.5mb - 21f
8:00 6 7 mph - 31f -
7:54 6
mph
- 31f -
7:48  -  mph 1030.4mb 31f -
7:42  -  mph 1030.3mb 31f -
7:36  -  mph 1030.3mb 31f -
7:30  -  mph 1030mb - 20f
7:24  -  mph 1029.9mb - 20f
7:18  -  mph 1029.7mb - 20f
7:12  -  mph 1029.6mb - 20f
7:06  -  mph 1029.6mb - 20f
7:00 8 9 mph 1029.6mb 31f 20f
6:54 7 8 mph 1029.4mb 31f 20f
6:48 6 7 mph - 31f -
6:42 7 9 mph - 31f -
6:36 7 8 mph - 31f -
6:30 6 7 mph 1029.2mb 31f -
6:24 6 7 mph 1029.3mb 31f -
6:18  -  mph 1029.2mb 31f 20f
6:12  -  mph 1029.3mb 31f 20f
6:06  -  mph 1029.3mb 31f 20f
6:00  -  mph 1029.4mb 31f 20f
5:54  -  mph 1029.2mb 31f 20f
5:48 7 9 mph - - -
5:42 7 8 mph - - -
5:36 7 8 mph - - -
5:30  -  mph 1028.8mb 31f -
5:24  -  mph 1028.8mb 31f -
5:18 9 10 mph - 31f 21f
5:12 8 9 mph - 31f 21f
5:06 7 9 mph - 31f 21f
5:00 8 9 mph 1028.2mb 31f -
4:54 8 9 mph 1028.2mb 31f -
4:48  -  mph 1028.2mb 31f -
4:42  -  mph 1028.1mb 31f -
4:36  -  mph 1028mb 31f -
4:30 8 10 mph 1028.1mb - 21f
4:24 8 11 mph 1028mb - 21f
4:18  -  mph - - 22f
4:12  -  mph - - 22f
4:06  -  mph - - 22f
4:00  -  mph 1027.6mb 31f 22f
3:54  -  mph 1027.5mb 31f 22f
3:48 6 7 mph 1027.2mb - 22f
3:42 5 6 mph 1027.3mb - 22f
3:36 5 6 mph 1027.4mb - 22f
3:30 5 7 mph 1027.4mb - 22f
3:24 6 8 mph 1027.2mb - 22f
3:18  -  mph - 31f 22f
3:12  -  mph - 31f 22f
3:06  -  mph - 31f 23f
3:00 6 7 mph 1026.9mb - 23f
2:54 7 8 mph 1026.9mb - 23f
2:48 8 9 mph 1026.9mb 31f 23f
2:42 8 9 mph 1026.9mb 31f 23f
2:36 7 8 mph 1026.9mb 31f 23f
2:30 8 10 mph 1026.8mb - 24f
2:24 9 13 mph 1026.8mb - 24f
2:18  -  mph - - 24f
2:12  -  mph - - 24f
2:06  -  mph - - 24f
2:00 9 13 mph - - -
1:54 10 11 mph - - -
1:48 10 13 mph 1026.7mb - 24f
1:42 11 14 mph 1026.7mb - 24f
1:36 13 15 mph 1026.7mb - 24f
1:30 13 14 mph 1026.6mb - 24f
1:24 11 13 mph 1026.6mb - 24f
1:18 10 13 mph - - 24f
1:12 11 14 mph - - 24f
1:06 13 14 mph - - 24f
1:00  -  mph - 31f 24f
12:54  -  mph - 31f 24f
12:48  -  mph - 31f 25f
12:42  -  mph - 31f 25f
12:36  -  mph - 31f 25f
12:30  -  mph 1025.8mb - -
12:24  -  mph 1025.7mb - -
12:18  -  mph 1025.6mb 31f 26f
12:12  -  mph 1025.4mb 31f 26f
12:06  -  mph 1025.3mb 31f 26f
12:00  -  mph 1025.2mb - -
lun 03/02 11:54  -  mph 1025.2mb - -
11:48  -  mph - 31f 27f
11:42  -  mph - 31f 27f
11:36  -  mph - 31f 27f
11:30  -  mph 1024.8mb 31f 27f
11:24  -  mph 1024.8mb 31f 27f
11:18  -  mph 1024.9mb - 27f
11:12  -  mph 1024.9mb - 27f
11:06  -  mph 1024.6mb - 27f
11:00 14 18 mph 1024.3mb 31f 28f
10:54 15 17 mph 1024.1mb 31f 28f
10:48  -  mph - 31f -
10:42  -  mph - 31f -
10:36  -  mph - 31f -
10:30 15 20 mph 1023.8mb - 28f
10:24 16 18 mph 1023.7mb - 28f
10:18  -  mph - 31f -